Time;durP1;ratioP1;P1;durP2;ratioP2;P2;SDS_P1;SDS_P2;PMS_P1;PMS_P2;Temp;Humidity;BMP_temperature;BMP_pressure;BME280_temperature;BME280_humidity;BME280_pressure;Samples;Min_cycle;Max_cycle;Signal;HPM_P1;HPM_P2
2020/12/27 00:00:34;;;;;;;26.48;14.25;;;;;;;;;;4944464;29;20090;-61
2020/12/27 00:03:00;;;;;;;20.27;8.13;;;;;;;;;;4945505;29;20090;-60
2020/12/27 00:05:26;;;;;;;20.67;11.15;;;;;;;;;;4945521;29;20057;-61
2020/12/27 00:07:52;;;;;;;14.85;6.60;;;;;;;;;;4945719;29;20716;-61
2020/12/27 00:10:17;;;;;;;18.83;9.82;;;;;;;;;;4944890;29;20110;-62
2020/12/27 00:12:43;;;;;;;24.25;11.57;;;;;;;;;;4946305;28;20043;-61
2020/12/27 00:15:09;;;;;;;26.02;13.80;;;;;;;;;;4947528;29;20047;-62
2020/12/27 00:17:35;;;;;;;27.70;14.32;;;;;;;;;;4945672;29;20055;-61
2020/12/27 00:20:04;;;;;;;27.35;14.60;;;;;;;;;;4945333;29;20374;-62
2020/12/27 00:22:30;;;;;;;25.40;12.57;;;;;;;;;;4943504;29;20051;-62
2020/12/27 00:24:55;;;;;;;32.30;16.23;;;;;;;;;;4945290;29;20036;-62
2020/12/27 00:27:21;;;;;;;32.92;16.08;;;;;;;;;;4941600;28;20043;-62
2020/12/27 00:29:47;;;;;;;26.40;14.27;;;;;;;;;;4944339;29;20073;-62
2020/12/27 00:32:13;;;;;;;27.73;15.10;;;;;;;;;;4944705;28;20035;-61
2020/12/27 00:34:39;;;;;;;31.77;16.85;;;;;;;;;;4943825;28;20035;-62
2020/12/27 00:37:05;;;;;;;16.25;6.90;;;;;;;;;;4943302;29;20048;-61
2020/12/27 00:39:31;;;;;;;18.70;9.48;;;;;;;;;;4945709;29;20028;-62
2020/12/27 00:42:00;;;;;;;20.05;9.20;;;;;;;;;;4943595;28;20047;-62
2020/12/27 00:44:26;;;;;;;23.50;12.10;;;;;;;;;;4939059;29;20142;-61
2020/12/27 00:46:53;;;;;;;28.42;12.75;;;;;;;;;;4944614;29;20050;-60
2020/12/27 00:49:19;;;;;;;26.92;12.63;;;;;;;;;;4945439;29;20043;-61
2020/12/27 00:51:45;;;;;;;22.45;11.80;;;;;;;;;;4943657;29;20458;-59
2020/12/27 00:54:11;;;;;;;24.55;12.45;;;;;;;;;;4944850;29;20085;-61
2020/12/27 00:56:37;;;;;;;12.25;6.53;;;;;;;;;;4945199;29;20262;-61
2020/12/27 00:59:03;;;;;;;22.35;11.07;;;;;;;;;;4944683;29;20043;-61
2020/12/27 01:01:29;;;;;;;21.80;10.43;;;;;;;;;;4945052;28;20066;-61
2020/12/27 01:03:55;;;;;;;24.45;12.55;;;;;;;;;;4945848;29;20119;-61
2020/12/27 01:06:22;;;;;;;12.82;6.80;;;;;;;;;;4944715;29;20062;-61
2020/12/27 01:08:48;;;;;;;17.83;8.27;;;;;;;;;;4946285;29;20063;-62
2020/12/27 01:11:14;;;;;;;18.10;9.43;;;;;;;;;;4945453;29;20063;-61
2020/12/27 01:13:40;;;;;;;24.70;11.63;;;;;;;;;;4943775;29;20995;-61
2020/12/27 01:16:09;;;;;;;17.42;9.25;;;;;;;;;;4945818;29;20054;-62
2020/12/27 01:18:35;;;;;;;28.98;13.15;;;;;;;;;;4944479;29;20039;-61
2020/12/27 01:21:00;;;;;;;33.20;14.15;;;;;;;;;;4946329;29;20028;-61
2020/12/27 01:23:26;;;;;;;11.80;5.72;;;;;;;;;;4943905;28;20047;-61
2020/12/27 01:25:52;;;;;;;23.65;10.68;;;;;;;;;;4935196;29;20039;-61
2020/12/27 01:28:18;;;;;;;32.10;15.50;;;;;;;;;;4943669;29;20046;-61
2020/12/27 01:30:44;;;;;;;31.80;16.95;;;;;;;;;;4943731;29;20047;-60
2020/12/27 01:33:10;;;;;;;37.88;19.63;;;;;;;;;;4943321;29;20039;-60
2020/12/27 01:35:35;;;;;;;37.58;17.65;;;;;;;;;;4932243;29;23077;-62
2020/12/27 01:38:02;;;;;;;32.00;16.23;;;;;;;;;;4943097;28;20039;-64
2020/12/27 01:40:28;;;;;;;32.22;14.05;;;;;;;;;;4943410;29;20071;-62
2020/12/27 01:42:55;;;;;;;24.35;11.48;;;;;;;;;;4943935;29;20044;-61
2020/12/27 01:45:20;;;;;;;31.95;16.33;;;;;;;;;;4940828;29;20103;-61
2020/12/27 01:47:48;;;;;;;37.95;19.70;;;;;;;;;;4925873;29;20654;-60
2020/12/27 01:50:14;;;;;;;13.35;6.25;;;;;;;;;;4945259;29;20050;-62
2020/12/27 01:52:40;;;;;;;29.67;15.48;;;;;;;;;;4942079;28;20122;-62
2020/12/27 01:55:06;;;;;;;35.42;17.90;;;;;;;;;;4943000;29;20086;-61
2020/12/27 01:57:51;;;;;;;38.08;18.25;;;;;;;;;;4944183;28;20095;-62
2020/12/27 02:00:16;;;;;;;32.00;16.23;;;;;;;;;;4932979;29;20070;-61
2020/12/27 02:02:42;;;;;;;34.40;16.45;;;;;;;;;;4933168;29;20039;-60
2020/12/27 02:05:08;;;;;;;35.42;16.08;;;;;;;;;;4945490;29;20055;-62
2020/12/27 02:07:35;;;;;;;41.35;20.50;;;;;;;;;;4944306;29;20098;-61
2020/12/27 02:10:01;;;;;;;36.63;19.23;;;;;;;;;;4944005;29;20054;-62
2020/12/27 02:12:27;;;;;;;37.58;18.35;;;;;;;;;;4943790;28;20054;-62
2020/12/27 02:14:53;;;;;;;38.45;18.67;;;;;;;;;;4944591;29;20048;-62
2020/12/27 02:17:19;;;;;;;26.20;12.27;;;;;;;;;;4945386;29;20120;-62
2020/12/27 02:19:45;;;;;;;39.22;19.17;;;;;;;;;;4944869;29;20154;-62
2020/12/27 02:22:11;;;;;;;38.53;17.42;;;;;;;;;;4945027;29;20044;-62
2020/12/27 02:24:37;;;;;;;42.05;18.83;;;;;;;;;;4945534;29;21375;-61
2020/12/27 02:27:04;;;;;;;29.60;13.77;;;;;;;;;;4943827;29;20080;-61
2020/12/27 02:29:32;;;;;;;39.95;19.75;;;;;;;;;;4944936;29;20043;-61
2020/12/27 02:31:58;;;;;;;44.00;19.80;;;;;;;;;;4942792;28;20050;-62
2020/12/27 02:34:24;;;;;;;33.38;14.63;;;;;;;;;;4942876;29;20047;-62
2020/12/27 02:36:51;;;;;;;31.92;15.02;;;;;;;;;;4943223;28;20070;-61
2020/12/27 02:39:18;;;;;;;28.10;12.85;;;;;;;;;;4943198;29;20047;-61
2020/12/27 02:41:47;;;;;;;29.70;12.55;;;;;;;;;;4943326;29;20039;-62
2020/12/27 02:44:13;;;;;;;33.25;12.43;;;;;;;;;;4939955;29;20047;-61
2020/12/27 02:46:38;;;;;;;34.30;15.05;;;;;;;;;;4941110;29;20205;-62
2020/12/27 02:49:04;;;;;;;21.58;9.52;;;;;;;;;;4944454;29;20035;-62
2020/12/27 02:51:30;;;;;;;26.70;11.50;;;;;;;;;;4943119;28;20043;-62
2020/12/27 02:53:58;;;;;;;35.55;17.80;;;;;;;;;;4945234;29;20044;-61
2020/12/27 02:56:28;;;;;;;40.55;19.33;;;;;;;;;;4941909;28;20045;-60
2020/12/27 02:58:58;;;;;;;38.17;18.15;;;;;;;;;;4945462;29;20461;-60
2020/12/27 03:01:24;;;;;;;41.05;18.75;;;;;;;;;;4946304;28;20043;-61
2020/12/27 03:03:50;;;;;;;46.92;21.88;;;;;;;;;;4946940;29;20052;-61
2020/12/27 03:06:18;;;;;;;47.50;21.27;;;;;;;;;;4946808;29;20044;-62
2020/12/27 03:08:44;;;;;;;46.45;21.85;;;;;;;;;;4933738;29;20043;-61
2020/12/27 03:11:10;;;;;;;49.60;23.48;;;;;;;;;;4945783;29;20127;-61
2020/12/27 03:13:36;;;;;;;51.05;22.95;;;;;;;;;;4944661;28;20295;-60
2020/12/27 03:16:03;;;;;;;43.40;20.02;;;;;;;;;;4947683;29;20504;-61
2020/12/27 03:18:30;;;;;;;45.47;22.67;;;;;;;;;;4947486;29;20063;-61
2020/12/27 03:20:56;;;;;;;54.38;23.95;;;;;;;;;;4948832;29;20564;-60
2020/12/27 03:23:22;;;;;;;53.97;23.35;;;;;;;;;;4944201;29;20048;-61
2020/12/27 03:25:48;;;;;;;54.22;23.98;;;;;;;;;;4941814;29;20066;-61
2020/12/27 03:28:14;;;;;;;45.15;19.90;;;;;;;;;;4944503;29;20367;-62
2020/12/27 03:30:40;;;;;;;46.25;20.65;;;;;;;;;;4935929;29;20111;-62
2020/12/27 03:33:06;;;;;;;50.45;22.42;;;;;;;;;;4945666;28;20031;-62
2020/12/27 03:35:32;;;;;;;53.55;23.45;;;;;;;;;;4940201;29;20102;-62
2020/12/27 03:37:58;;;;;;;43.97;20.63;;;;;;;;;;4945244;29;20068;-62
2020/12/27 03:40:23;;;;;;;44.00;20.38;;;;;;;;;;4947630;29;20040;-61
2020/12/27 03:42:49;;;;;;;45.10;18.52;;;;;;;;;;4946243;29;20103;-61
2020/12/27 03:45:15;;;;;;;41.05;14.98;;;;;;;;;;4949550;29;20066;-61
2020/12/27 03:47:41;;;;;;;36.80;15.43;;;;;;;;;;4945561;29;20040;-61
2020/12/27 03:50:07;;;;;;;36.22;17.85;;;;;;;;;;4945344;28;20039;-61
2020/12/27 03:52:33;;;;;;;30.67;13.25;;;;;;;;;;4946196;29;20106;-62
2020/12/27 03:54:59;;;;;;;27.67;12.00;;;;;;;;;;4945853;28;20084;-61
2020/12/27 03:57:24;;;;;;;26.98;12.60;;;;;;;;;;4947805;29;20098;-61
2020/12/27 03:59:50;;;;;;;24.88;11.07;;;;;;;;;;4945542;28;20071;-62
2020/12/27 04:02:16;;;;;;;27.88;13.38;;;;;;;;;;4943791;29;20054;-62
2020/12/27 04:04:42;;;;;;;30.60;14.25;;;;;;;;;;4944231;29;20067;-60
2020/12/27 04:07:08;;;;;;;27.27;13.23;;;;;;;;;;4945725;29;20535;-61
2020/12/27 04:09:35;;;;;;;30.10;14.80;;;;;;;;;;4941210;28;20039;-62
2020/12/27 04:12:01;;;;;;;32.13;13.73;;;;;;;;;;4945158;29;20162;-62
2020/12/27 04:14:28;;;;;;;27.75;11.98;;;;;;;;;;4946003;29;20039;-61
2020/12/27 04:16:54;;;;;;;30.75;13.63;;;;;;;;;;4947851;29;20047;-61
2020/12/27 04:19:19;;;;;;;26.95;11.60;;;;;;;;;;4944399;28;20125;-61
2020/12/27 04:21:46;;;;;;;30.08;13.55;;;;;;;;;;4945777;29;20074;-62
2020/12/27 04:24:12;;;;;;;32.65;13.38;;;;;;;;;;4946745;29;20058;-61
2020/12/27 04:26:38;;;;;;;29.83;13.07;;;;;;;;;;4946631;29;20223;-61
2020/12/27 04:29:04;;;;;;;29.70;13.93;;;;;;;;;;4944559;29;20064;-61
2020/12/27 04:31:30;;;;;;;28.17;13.43;;;;;;;;;;4946943;29;20063;-63
2020/12/27 04:33:57;;;;;;;29.65;13.45;;;;;;;;;;4946597;28;20089;-61
2020/12/27 04:36:23;;;;;;;28.63;12.05;;;;;;;;;;4943914;29;20043;-62
2020/12/27 04:38:49;;;;;;;27.95;11.02;;;;;;;;;;4945886;29;20122;-62
2020/12/27 04:41:15;;;;;;;30.67;11.13;;;;;;;;;;4944734;29;20051;-64
2020/12/27 04:43:45;;;;;;;32.45;13.50;;;;;;;;;;4944528;29;20048;-61
2020/12/27 04:46:11;;;;;;;31.02;13.73;;;;;;;;;;4945628;29;20055;-61
2020/12/27 04:48:38;;;;;;;32.25;14.07;;;;;;;;;;4946119;28;20055;-61
2020/12/27 04:51:05;;;;;;;26.80;12.63;;;;;;;;;;4933473;29;22169;-61
2020/12/27 04:53:31;;;;;;;26.58;12.30;;;;;;;;;;4928184;28;20042;-60
2020/12/27 04:55:58;;;;;;;32.40;14.43;;;;;;;;;;4946728;29;20095;-63
2020/12/27 04:58:24;;;;;;;29.95;13.63;;;;;;;;;;4945134;28;20043;-62
2020/12/27 05:00:50;;;;;;;30.23;13.98;;;;;;;;;;4945521;29;20050;-61
2020/12/27 05:03:15;;;;;;;28.70;12.75;;;;;;;;;;4945630;29;20044;-61
2020/12/27 05:05:41;;;;;;;30.48;13.90;;;;;;;;;;4944465;28;20870;-61
2020/12/27 05:08:07;;;;;;;32.63;14.05;;;;;;;;;;4946504;29;20040;-62
2020/12/27 05:10:43;;;;;;;22.80;9.95;;;;;;;;;;4944965;29;20492;-62
2020/12/27 05:13:12;;;;;;;32.08;13.40;;;;;;;;;;4946696;29;20051;-63
2020/12/27 05:15:38;;;;;;;33.20;13.20;;;;;;;;;;4927905;29;20058;-60
2020/12/27 05:18:04;;;;;;;27.35;11.95;;;;;;;;;;4946702;29;20043;-62
2020/12/27 05:20:34;;;;;;;29.13;13.93;;;;;;;;;;4944873;28;20047;-63
2020/12/27 05:23:01;;;;;;;30.92;13.70;;;;;;;;;;4944463;29;20082;-63
2020/12/27 05:25:28;;;;;;;30.42;12.43;;;;;;;;;;4943942;28;20035;-62
2020/12/27 05:27:55;;;;;;;31.80;12.55;;;;;;;;;;4924797;29;20043;-63
2020/12/27 05:30:27;;;;;;;31.77;13.15;;;;;;;;;;4944108;28;20059;-63
2020/12/27 05:32:53;;;;;;;30.55;13.60;;;;;;;;;;4928402;29;20090;-62
2020/12/27 05:35:19;;;;;;;31.20;12.77;;;;;;;;;;4945247;29;20047;-64
2020/12/27 05:37:46;;;;;;;32.00;13.35;;;;;;;;;;4943993;29;20047;-62
2020/12/27 05:40:13;;;;;;;25.45;11.95;;;;;;;;;;4945265;28;20050;-61
2020/12/27 05:42:39;;;;;;;35.10;14.20;;;;;;;;;;4943896;29;20047;-62
2020/12/27 05:45:15;;;;;;;31.08;13.85;;;;;;;;;;4946255;29;20051;-60
2020/12/27 05:47:42;;;;;;;31.77;13.95;;;;;;;;;;4944037;29;20039;-62
2020/12/27 05:50:11;;;;;;;35.78;14.90;;;;;;;;;;4946168;29;20498;-62
2020/12/27 05:52:40;;;;;;;32.50;13.63;;;;;;;;;;4943218;29;20035;-62
2020/12/27 05:55:08;;;;;;;32.50;14.13;;;;;;;;;;4942979;29;20035;-61
2020/12/27 05:57:34;;;;;;;35.60;14.30;;;;;;;;;;4943959;29;20055;-63
2020/12/27 06:00:03;;;;;;;32.72;14.45;;;;;;;;;;4944337;29;20043;-61
2020/12/27 06:02:39;;;;;;;34.85;13.35;;;;;;;;;;4942156;28;20055;-63
2020/12/27 06:05:04;;;;;;;33.90;15.25;;;;;;;;;;4945019;29;20186;-63
2020/12/27 06:07:40;;;;;;;39.42;15.32;;;;;;;;;;4932561;29;20628;-62
2020/12/27 06:10:06;;;;;;;41.65;17.88;;;;;;;;;;4945441;29;20046;-63
2020/12/27 06:12:50;;;;;;;42.00;16.85;;;;;;;;;;4943679;29;20061;-62
2020/12/27 06:15:26;;;;;;;41.25;18.38;;;;;;;;;;4945522;29;20040;-61
2020/12/27 06:17:51;;;;;;;50.65;20.13;;;;;;;;;;4944210;28;20035;-62
2020/12/27 06:20:18;;;;;;;38.90;15.13;;;;;;;;;;4928649;29;20039;-63
2020/12/27 06:22:51;;;;;;;51.13;20.20;;;;;;;;;;4942145;29;20046;-63
2020/12/27 06:25:18;;;;;;;43.20;19.33;;;;;;;;;;4944870;29;20046;-61
2020/12/27 06:27:44;;;;;;;52.42;20.88;;;;;;;;;;4942629;28;20043;-62
2020/12/27 06:30:11;;;;;;;51.70;21.38;;;;;;;;;;4944114;29;20066;-62
2020/12/27 06:32:43;;;;;;;49.10;21.25;;;;;;;;;;4942346;28;20075;-62
2020/12/27 06:35:09;;;;;;;47.78;21.05;;;;;;;;;;4946845;29;20047;-62
2020/12/27 06:37:42;;;;;;;49.97;20.65;;;;;;;;;;4948559;28;20213;-62
2020/12/27 06:40:08;;;;;;;52.60;21.38;;;;;;;;;;4946723;29;20035;-63
2020/12/27 06:42:34;;;;;;;51.03;20.42;;;;;;;;;;4946270;29;20046;-63
2020/12/27 06:44:59;;;;;;;51.85;20.92;;;;;;;;;;4948714;29;20063;-62
2020/12/27 06:47:44;;;;;;;55.97;21.58;;;;;;;;;;4946310;29;20050;-62
2020/12/27 06:50:16;;;;;;;47.67;21.08;;;;;;;;;;4949195;29;20046;-62
2020/12/27 06:52:42;;;;;;;51.08;21.15;;;;;;;;;;4946006;29;20035;-62
2020/12/27 06:55:08;;;;;;;52.92;22.17;;;;;;;;;;4948538;29;20047;-61
2020/12/27 06:57:39;;;;;;;48.80;21.00;;;;;;;;;;4943666;28;20103;-62
2020/12/27 07:00:24;;;;;;;46.90;21.25;;;;;;;;;;4947483;29;20083;-62
2020/12/27 07:03:10;;;;;;;44.30;19.20;;;;;;;;;;4946386;29;20042;-62
2020/12/27 07:05:39;;;;;;;49.35;21.08;;;;;;;;;;4945817;29;20058;-62
2020/12/27 07:08:06;;;;;;;44.08;20.05;;;;;;;;;;4947297;29;20059;-62
2020/12/27 07:10:33;;;;;;;37.35;14.65;;;;;;;;;;4946728;29;20166;-63
2020/12/27 07:13:12;;;;;;;38.53;17.02;;;;;;;;;;4933442;29;20036;-61
2020/12/27 07:15:52;;;;;;;35.38;16.10;;;;;;;;;;4945920;29;20106;-61
2020/12/27 07:18:22;;;;;;;43.13;18.00;;;;;;;;;;4946211;28;20071;-64
2020/12/27 07:20:58;;;;;;;43.78;17.77;;;;;;;;;;4948737;29;20050;-63
2020/12/27 07:23:30;;;;;;;34.40;16.73;;;;;;;;;;4948573;29;20079;-63
2020/12/27 07:26:00;;;;;;;37.15;15.68;;;;;;;;;;4945188;29;20094;-63
2020/12/27 07:28:27;;;;;;;37.53;16.70;;;;;;;;;;4946971;29;20059;-62
2020/12/27 07:30:56;;;;;;;35.20;15.77;;;;;;;;;;4946489;29;20079;-62
2020/12/27 07:33:26;;;;;;;36.53;16.05;;;;;;;;;;4947220;28;20036;-62
2020/12/27 07:35:58;;;;;;;33.53;15.38;;;;;;;;;;4947370;29;20051;-63
2020/12/27 07:38:32;;;;;;;36.88;14.98;;;;;;;;;;4947238;29;20066;-63
2020/12/27 07:40:58;;;;;;;32.78;14.50;;;;;;;;;;4947503;29;20054;-62
2020/12/27 07:43:24;;;;;;;29.15;12.85;;;;;;;;;;4945662;29;20087;-62
2020/12/27 07:45:51;;;;;;;32.28;12.85;;;;;;;;;;4944892;29;20047;-62
2020/12/27 07:48:16;;;;;;;17.73;6.53;;;;;;;;;;4934798;28;20678;-63
2020/12/27 07:50:42;;;;;;;30.70;13.73;;;;;;;;;;4945343;29;20040;-62
2020/12/27 07:53:08;;;;;;;27.83;9.23;;;;;;;;;;4946972;28;20108;-62
2020/12/27 07:55:36;;;;;;;32.28;12.55;;;;;;;;;;4946247;29;20043;-62
2020/12/27 07:58:03;;;;;;;36.47;16.20;;;;;;;;;;4943818;29;20198;-63
2020/12/27 08:00:33;;;;;;;37.72;15.57;;;;;;;;;;4944206;29;20056;-62
2020/12/27 08:03:03;;;;;;;35.40;14.77;;;;;;;;;;4933271;29;22166;-63
2020/12/27 08:05:29;;;;;;;33.42;15.20;;;;;;;;;;4946244;29;20111;-62
2020/12/27 08:08:01;;;;;;;38.05;15.82;;;;;;;;;;4945448;29;20134;-61
2020/12/27 08:10:27;;;;;;;28.63;11.20;;;;;;;;;;4944670;29;20054;-60
2020/12/27 08:12:54;;;;;;;35.38;14.82;;;;;;;;;;4945829;29;20043;-60
2020/12/27 08:15:20;;;;;;;36.50;13.35;;;;;;;;;;4945445;29;20055;-61
2020/12/27 08:18:00;;;;;;;37.00;14.38;;;;;;;;;;4935024;29;20054;-62
2020/12/27 08:20:26;;;;;;;30.58;14.40;;;;;;;;;;4943547;29;20401;-63
2020/12/27 08:23:03;;;;;;;33.90;13.13;;;;;;;;;;4944820;28;20051;-62
2020/12/27 08:25:29;;;;;;;31.67;13.60;;;;;;;;;;4946221;29;20484;-62
2020/12/27 08:27:56;;;;;;;34.45;14.88;;;;;;;;;;4946440;29;20050;-62
2020/12/27 08:30:22;;;;;;;29.90;12.52;;;;;;;;;;4945142;29;20047;-61
2020/12/27 08:32:48;;;;;;;27.15;10.73;;;;;;;;;;4945425;29;20047;-61
2020/12/27 08:35:25;;;;;;;24.33;9.93;;;;;;;;;;4945682;29;20035;-62
2020/12/27 08:38:00;;;;;;;31.55;12.77;;;;;;;;;;4946501;29;20092;-62
2020/12/27 08:40:28;;;;;;;29.90;11.10;;;;;;;;;;4945059;29;20036;-62
2020/12/27 08:42:55;;;;;;;28.95;12.50;;;;;;;;;;4947382;29;20039;-61
2020/12/27 08:45:21;;;;;;;28.20;10.68;;;;;;;;;;4944421;29;20079;-61
2020/12/27 08:47:47;;;;;;;31.67;12.68;;;;;;;;;;4946028;29;20044;-61
2020/12/27 08:50:17;;;;;;;32.40;13.38;;;;;;;;;;4945166;29;20174;-61
2020/12/27 08:52:48;;;;;;;32.90;13.55;;;;;;;;;;4945156;29;20047;-61
2020/12/27 08:55:14;;;;;;;28.67;12.93;;;;;;;;;;4946085;29;20043;-62
2020/12/27 08:57:43;;;;;;;34.05;13.43;;;;;;;;;;4943979;28;20101;-61
2020/12/27 09:00:10;;;;;;;31.63;13.30;;;;;;;;;;4945343;29;20062;-61
2020/12/27 09:02:36;;;;;;;33.03;13.90;;;;;;;;;;4945705;29;20075;-63
2020/12/27 09:05:10;;;;;;;33.63;15.07;;;;;;;;;;4945359;29;20063;-61
2020/12/27 09:07:37;;;;;;;35.95;13.63;;;;;;;;;;4943106;28;20142;-61
2020/12/27 09:10:10;;;;;;;28.10;13.43;;;;;;;;;;4943886;29;20161;-61
2020/12/27 09:12:36;;;;;;;;;;;;;;;;;;4943949;29;20050;-61
2020/12/27 09:15:20;;;;;;;33.88;13.32;;;;;;;;;;4943389;29;19922;-61
2020/12/27 09:17:46;;;;;;;36.03;14.60;;;;;;;;;;4944475;29;20040;-62
2020/12/27 09:20:12;;;;;;;35.17;13.90;;;;;;;;;;4944858;29;20048;-62
2020/12/27 09:22:42;;;;;;;34.40;14.65;;;;;;;;;;4943008;29;20091;-62
2020/12/27 09:25:08;;;;;;;34.25;13.63;;;;;;;;;;4946774;29;20051;-61
2020/12/27 09:27:34;;;;;;;33.58;14.80;;;;;;;;;;4945233;29;20050;-61
2020/12/27 09:30:01;;;;;;;30.05;12.07;;;;;;;;;;4944774;29;20043;-61
2020/12/27 09:32:33;;;;;;;32.28;13.20;;;;;;;;;;4942739;29;20083;-62
2020/12/27 09:35:00;;;;;;;28.87;11.20;;;;;;;;;;4944904;29;20074;-62
2020/12/27 09:37:30;;;;;;;35.58;14.02;;;;;;;;;;4946027;28;20281;-61
2020/12/27 09:39:56;;;;;;;30.38;12.63;;;;;;;;;;4944661;29;20047;-62
2020/12/27 09:42:23;;;;;;;30.95;10.35;;;;;;;;;;4943774;29;20039;-61
2020/12/27 09:44:48;;;;;;;30.58;12.57;;;;;;;;;;4944397;29;20065;-61
2020/12/27 09:47:22;;;;;;;27.27;12.50;;;;;;;;;;4945596;28;20076;-62
2020/12/27 09:49:58;;;;;;;27.30;11.85;;;;;;;;;;4944523;29;20050;-61
2020/12/27 09:52:24;;;;;;;30.50;12.30;;;;;;;;;;4943082;28;20051;-61
2020/12/27 09:54:50;;;;;;;22.67;9.35;;;;;;;;;;4945861;29;20114;-61
2020/12/27 09:57:16;;;;;;;24.67;9.48;;;;;;;;;;4931816;29;20039;-62
2020/12/27 09:59:42;;;;;;;27.00;11.57;;;;;;;;;;4944128;29;20066;-62
2020/12/27 10:02:08;;;;;;;23.02;9.00;;;;;;;;;;4944816;28;20055;-61
2020/12/27 10:04:34;;;;;;;26.10;11.25;;;;;;;;;;4940971;29;20055;-61
2020/12/27 10:07:00;;;;;;;30.20;12.32;;;;;;;;;;4945315;28;20044;-62
2020/12/27 10:09:26;;;;;;;28.05;12.70;;;;;;;;;;4942427;29;20051;-61
2020/12/27 10:11:52;;;;;;;30.42;12.10;;;;;;;;;;4943870;29;20042;-62
2020/12/27 10:14:18;;;;;;;31.30;13.27;;;;;;;;;;4942252;29;20043;-62
2020/12/27 10:16:44;;;;;;;30.90;12.70;;;;;;;;;;4944137;28;20094;-63
2020/12/27 10:19:10;;;;;;;30.88;12.63;;;;;;;;;;4944632;29;20039;-62
2020/12/27 10:21:36;;;;;;;31.75;12.52;;;;;;;;;;4943042;29;20050;-62
2020/12/27 10:24:02;;;;;;;30.85;12.25;;;;;;;;;;4945551;29;20154;-62
2020/12/27 10:26:28;;;;;;;33.65;13.68;;;;;;;;;;4943541;29;20047;-61
2020/12/27 10:28:54;;;;;;;30.08;12.15;;;;;;;;;;4928115;29;20039;-61
2020/12/27 10:31:19;;;;;;;31.88;12.52;;;;;;;;;;4943600;29;20474;-61
2020/12/27 10:33:45;;;;;;;31.30;12.60;;;;;;;;;;4944593;29;20908;-62
2020/12/27 10:36:11;;;;;;;32.72;12.57;;;;;;;;;;4943210;28;20044;-62
2020/12/27 10:38:37;;;;;;;32.58;12.85;;;;;;;;;;4945005;29;20047;-61
2020/12/27 10:41:03;;;;;;;33.42;13.15;;;;;;;;;;4943295;28;20043;-61
2020/12/27 10:43:29;;;;;;;33.55;13.70;;;;;;;;;;4944956;29;20055;-62
2020/12/27 10:46:03;;;;;;;36.72;14.68;;;;;;;;;;4946533;28;20035;-62
2020/12/27 10:48:29;;;;;;;31.15;14.00;;;;;;;;;;4944083;29;20058;-62
2020/12/27 10:50:55;;;;;;;32.97;14.38;;;;;;;;;;4944750;28;20058;-62
2020/12/27 10:53:21;;;;;;;32.45;13.82;;;;;;;;;;4945698;29;20039;-62
2020/12/27 10:55:48;;;;;;;31.85;13.10;;;;;;;;;;4945708;28;20409;-62
2020/12/27 10:58:14;;;;;;;38.30;13.90;;;;;;;;;;4943922;29;20059;-62
2020/12/27 11:00:40;;;;;;;35.50;14.38;;;;;;;;;;4945091;29;20047;-61
2020/12/27 11:03:06;;;;;;;32.70;13.18;;;;;;;;;;4946133;29;20051;-62
2020/12/27 11:05:32;;;;;;;32.40;14.32;;;;;;;;;;4937857;28;20158;-62
2020/12/27 11:07:57;;;;;;;34.28;13.95;;;;;;;;;;4946340;29;20044;-61
2020/12/27 11:10:23;;;;;;;32.38;12.73;;;;;;;;;;4945531;28;22823;-61
2020/12/27 11:12:49;;;;;;;35.65;14.10;;;;;;;;;;4943952;29;20409;-62
2020/12/27 11:15:16;;;;;;;30.13;14.02;;;;;;;;;;4945997;29;20489;-62
2020/12/27 11:17:42;;;;;;;34.58;14.50;;;;;;;;;;4944095;29;20051;-62
2020/12/27 11:20:08;;;;;;;29.63;11.73;;;;;;;;;;4928419;29;20035;-62
2020/12/27 11:22:36;;;;;;;32.47;11.75;;;;;;;;;;4931358;29;20047;-62
2020/12/27 11:25:03;;;;;;;28.73;12.00;;;;;;;;;;4947518;28;20118;-62
2020/12/27 11:27:29;;;;;;;31.75;12.73;;;;;;;;;;4947136;29;20040;-62
2020/12/27 11:29:56;;;;;;;30.75;12.85;;;;;;;;;;4946202;29;20047;-61
2020/12/27 11:32:22;;;;;;;29.40;12.18;;;;;;;;;;4945294;29;20107;-62
2020/12/27 11:34:48;;;;;;;30.15;13.32;;;;;;;;;;4948104;29;20122;-60
2020/12/27 11:37:14;;;;;;;32.47;13.85;;;;;;;;;;4948249;29;20089;-61
2020/12/27 11:39:41;;;;;;;32.25;12.88;;;;;;;;;;4946933;29;20046;-62
2020/12/27 11:42:06;;;;;;;32.90;13.10;;;;;;;;;;4947241;29;20091;-62
2020/12/27 11:44:32;;;;;;;25.85;11.07;;;;;;;;;;4946847;29;20051;-61
2020/12/27 11:46:58;;;;;;;30.45;12.98;;;;;;;;;;4949271;29;20043;-62
2020/12/27 11:49:24;;;;;;;29.60;11.35;;;;;;;;;;4947016;29;20076;-62
2020/12/27 11:51:53;;;;;;;29.08;11.95;;;;;;;;;;4945541;28;20086;-64
2020/12/27 11:54:18;;;;;;;30.38;11.60;;;;;;;;;;4946980;29;20031;-62
2020/12/27 11:56:44;;;;;;;30.35;12.77;;;;;;;;;;4947903;29;20054;-61
2020/12/27 11:59:12;;;;;;;31.30;12.85;;;;;;;;;;4947736;29;20035;-63
2020/12/27 12:01:37;;;;;;;31.17;13.55;;;;;;;;;;4945923;29;20035;-63
2020/12/27 12:04:03;;;;;;;33.88;13.82;;;;;;;;;;4945503;29;20055;-62
2020/12/27 12:06:29;;;;;;;36.17;14.20;;;;;;;;;;4945912;28;20894;-62
2020/12/27 12:08:55;;;;;;;31.17;13.02;;;;;;;;;;4947282;29;20047;-62
2020/12/27 12:11:21;;;;;;;30.10;12.82;;;;;;;;;;4945519;29;20039;-62
2020/12/27 12:13:47;;;;;;;33.30;13.50;;;;;;;;;;4947563;29;20036;-62
2020/12/27 12:16:20;;;;;;;32.83;12.60;;;;;;;;;;4949032;29;20461;-63
2020/12/27 12:18:46;;;;;;;34.75;12.95;;;;;;;;;;4945622;29;20769;-62
2020/12/27 12:21:13;;;;;;;32.25;12.63;;;;;;;;;;4945885;28;20062;-62
2020/12/27 12:23:39;;;;;;;35.80;12.48;;;;;;;;;;4944095;29;20067;-62
2020/12/27 12:26:05;;;;;;;36.58;12.70;;;;;;;;;;4946196;28;20042;-62
2020/12/27 12:28:31;;;;;;;36.47;14.88;;;;;;;;;;4946266;29;20059;-62
2020/12/27 12:30:57;;;;;;;31.92;13.10;;;;;;;;;;4945991;28;20043;-63
2020/12/27 12:33:22;;;;;;;32.95;15.10;;;;;;;;;;4944257;29;20039;-61
2020/12/27 12:35:48;;;;;;;35.70;14.32;;;;;;;;;;4945071;28;20050;-62
2020/12/27 12:38:14;;;;;;;33.80;12.48;;;;;;;;;;4945955;29;20075;-62
2020/12/27 12:40:40;;;;;;;36.33;13.90;;;;;;;;;;4944813;29;20688;-62
2020/12/27 12:43:06;;;;;;;29.90;11.68;;;;;;;;;;4945022;29;20039;-62
2020/12/27 12:45:32;;;;;;;30.52;12.95;;;;;;;;;;4945265;29;20062;-62
2020/12/27 12:47:58;;;;;;;38.65;15.55;;;;;;;;;;4947156;29;20440;-62
2020/12/27 12:50:24;;;;;;;36.70;15.27;;;;;;;;;;4943500;29;21436;-62
2020/12/27 12:52:50;;;;;;;36.15;14.73;;;;;;;;;;4917007;29;20084;-62
2020/12/27 12:55:16;;;;;;;35.55;13.68;;;;;;;;;;4943172;29;20043;-63
2020/12/27 12:57:42;;;;;;;37.45;14.65;;;;;;;;;;4946631;28;20043;-62
2020/12/27 13:00:08;;;;;;;32.65;14.63;;;;;;;;;;4945394;29;20150;-62
2020/12/27 13:02:34;;;;;;;35.05;15.27;;;;;;;;;;4945823;29;20071;-62
2020/12/27 13:05:00;;;;;;;40.03;15.43;;;;;;;;;;4945789;29;20051;-62
2020/12/27 13:07:26;;;;;;;38.00;15.95;;;;;;;;;;4944900;29;20765;-62
2020/12/27 13:09:52;;;;;;;30.88;14.25;;;;;;;;;;4947145;29;20118;-62
2020/12/27 13:12:18;;;;;;;37.25;14.73;;;;;;;;;;4945146;28;20041;-62
2020/12/27 13:14:43;;;;;;;38.42;15.23;;;;;;;;;;4943618;29;20035;-62
2020/12/27 13:17:09;;;;;;;35.50;15.45;;;;;;;;;;4945289;28;20122;-64
2020/12/27 13:19:35;;;;;;;42.92;16.23;;;;;;;;;;4944602;29;20031;-62
2020/12/27 13:22:01;;;;;;;38.40;15.65;;;;;;;;;;4944654;29;20035;-61
2020/12/27 13:24:27;;;;;;;33.97;15.55;;;;;;;;;;4944369;29;20047;-62
2020/12/27 13:26:53;;;;;;;42.47;14.75;;;;;;;;;;4943732;28;20047;-62
2020/12/27 13:29:19;;;;;;;39.05;15.10;;;;;;;;;;4946706;29;20039;-61
2020/12/27 13:31:45;;;;;;;38.13;15.77;;;;;;;;;;4945017;28;20047;-62
2020/12/27 13:34:10;;;;;;;35.22;15.00;;;;;;;;;;4943393;29;20049;-62
2020/12/27 13:36:38;;;;;;;36.80;15.88;;;;;;;;;;4944656;28;20040;-62
2020/12/27 13:39:03;;;;;;;34.90;16.10;;;;;;;;;;4944896;29;20047;-62
2020/12/27 13:41:29;;;;;;;40.35;16.60;;;;;;;;;;4945232;28;20062;-62
2020/12/27 13:43:55;;;;;;;35.97;14.75;;;;;;;;;;4944749;29;20166;-62
2020/12/27 13:46:21;;;;;;;33.92;14.48;;;;;;;;;;4944565;28;20051;-62
2020/12/27 13:48:47;;;;;;;34.72;14.55;;;;;;;;;;4935744;29;20043;-63
2020/12/27 13:51:19;;;;;;;34.88;14.52;;;;;;;;;;4927191;29;20043;-62
2020/12/27 13:53:46;;;;;;;35.85;14.23;;;;;;;;;;4944497;29;20162;-62
2020/12/27 13:56:11;;;;;;;31.88;14.82;;;;;;;;;;4944722;29;20043;-62
2020/12/27 13:58:37;;;;;;;36.95;16.08;;;;;;;;;;4944041;29;20046;-62
2020/12/27 14:01:03;;;;;;;37.00;15.68;;;;;;;;;;4927451;29;20043;-62
2020/12/27 14:03:29;;;;;;;37.45;15.45;;;;;;;;;;4943736;29;20188;-62
2020/12/27 14:05:55;;;;;;;36.88;15.88;;;;;;;;;;4944255;28;20073;-62
2020/12/27 14:08:21;;;;;;;38.42;16.15;;;;;;;;;;4946354;29;20043;-62
2020/12/27 14:10:47;;;;;;;39.33;16.55;;;;;;;;;;4943928;29;20034;-62
2020/12/27 14:13:12;;;;;;;35.40;16.08;;;;;;;;;;4945245;29;20043;-61
2020/12/27 14:15:38;;;;;;;38.97;16.00;;;;;;;;;;4945863;29;20067;-62
2020/12/27 14:18:04;;;;;;;36.60;15.45;;;;;;;;;;4944096;29;20043;-61